createdAt,value
2023-04-30T00:00:04.880Z,0.00
2023-04-30T00:01:04.916Z,0.00
2023-04-30T00:02:04.926Z,0.00
2023-04-30T00:03:05.050Z,0.00
2023-04-30T00:04:04.973Z,0.00
2023-04-30T00:05:04.876Z,0.00
2023-04-30T00:06:04.899Z,0.00
2023-04-30T00:07:04.843Z,0.00
2023-04-30T00:08:04.807Z,0.00
2023-04-30T00:09:04.887Z,0.00
2023-04-30T00:10:04.774Z,0.00
2023-04-30T00:11:04.807Z,0.00
2023-04-30T00:12:04.754Z,0.00
2023-04-30T00:13:04.774Z,0.00
2023-04-30T00:14:04.757Z,0.00
2023-04-30T00:15:04.744Z,0.00
2023-04-30T00:16:04.826Z,0.00
2023-04-30T00:17:04.726Z,0.00
2023-04-30T00:18:04.776Z,0.00
2023-04-30T00:19:04.702Z,0.00
2023-04-30T00:20:04.699Z,0.00
2023-04-30T00:21:04.705Z,0.00
2023-04-30T00:22:04.675Z,0.00
2023-04-30T00:23:04.652Z,0.00
2023-04-30T00:24:04.660Z,0.00
2023-04-30T00:25:04.646Z,0.00
2023-04-30T00:26:04.700Z,0.00
2023-04-30T00:27:04.641Z,0.00
2023-04-30T00:28:04.600Z,0.00
2023-04-30T00:29:04.607Z,0.00
2023-04-30T00:30:04.601Z,0.00
2023-04-30T00:31:04.628Z,0.00
2023-04-30T00:32:04.641Z,0.00
2023-04-30T00:33:04.609Z,0.00
2023-04-30T00:34:04.602Z,0.00
2023-04-30T00:35:04.536Z,0.00
2023-04-30T00:36:04.606Z,0.00
2023-04-30T00:37:04.527Z,0.00
2023-04-30T00:38:04.562Z,0.00
2023-04-30T00:39:04.517Z,0.00
2023-04-30T00:40:04.489Z,0.00
2023-04-30T00:41:04.532Z,0.00
2023-04-30T00:42:04.481Z,0.00
2023-04-30T00:43:04.468Z,0.00
2023-04-30T00:44:04.486Z,0.00
2023-04-30T00:45:04.459Z,0.00
2023-04-30T00:46:04.505Z,0.00
2023-04-30T00:47:04.408Z,0.00
2023-04-30T00:48:04.456Z,0.00
2023-04-30T00:49:04.428Z,0.00
2023-04-30T00:50:04.389Z,0.00
2023-04-30T00:51:04.411Z,0.00
2023-04-30T00:52:04.366Z,0.00
2023-04-30T00:53:04.358Z,0.00
2023-04-30T00:54:04.364Z,0.00
2023-04-30T00:55:04.380Z,0.00
2023-04-30T00:56:04.363Z,0.00
2023-04-30T00:57:04.311Z,0.00
2023-04-30T00:58:04.318Z,0.00
2023-04-30T00:59:04.308Z,0.00
2023-04-30T01:00:04.283Z,0.00
2023-04-30T01:01:04.416Z,0.00
2023-04-30T01:02:04.405Z,0.00
2023-04-30T01:03:04.374Z,0.00
2023-04-30T01:04:04.290Z,0.00
2023-04-30T01:05:04.231Z,0.00
2023-04-30T01:06:04.308Z,0.00
2023-04-30T01:07:04.222Z,0.00
2023-04-30T01:08:04.200Z,0.00
2023-04-30T01:09:04.203Z,0.00
2023-04-30T01:10:04.188Z,0.00
2023-04-30T01:11:04.298Z,0.00
2023-04-30T01:12:04.181Z,0.00
2023-04-30T01:13:04.202Z,0.00
2023-04-30T01:14:04.154Z,0.00
2023-04-30T01:15:04.128Z,0.00
2023-04-30T01:16:04.202Z,0.00
2023-04-30T01:17:04.144Z,0.00
2023-04-30T01:18:04.208Z,0.00
2023-04-30T01:19:04.186Z,0.00
2023-04-30T01:20:04.109Z,0.00
2023-04-30T01:21:04.124Z,0.00
2023-04-30T01:22:04.079Z,0.00
2023-04-30T01:23:04.117Z,0.00
2023-04-30T01:24:04.048Z,0.00
2023-04-30T01:25:04.032Z,0.00
2023-04-30T01:26:04.056Z,0.00
2023-04-30T01:27:04.012Z,0.00
2023-04-30T01:28:04.026Z,0.00
2023-04-30T01:29:04.005Z,0.00
2023-04-30T01:30:03.987Z,0.00
2023-04-30T01:31:04.085Z,0.00
2023-04-30T01:32:03.986Z,0.00
2023-04-30T01:33:03.976Z,0.00
2023-04-30T01:34:03.959Z,0.00
2023-04-30T01:35:03.930Z,0.00
2023-04-30T01:36:03.960Z,0.00
2023-04-30T01:37:03.919Z,0.00
2023-04-30T01:38:03.912Z,0.00
2023-04-30T01:39:03.944Z,0.00
2023-04-30T01:40:03.898Z,0.00
2023-04-30T01:41:03.862Z,0.00
2023-04-30T01:42:03.936Z,0.00
2023-04-30T01:43:03.852Z,0.00
2023-04-30T01:44:03.858Z,0.00
2023-04-30T01:45:03.813Z,0.00
2023-04-30T01:46:03.868Z,0.00
2023-04-30T01:47:03.868Z,0.00
2023-04-30T01:48:03.834Z,0.00
2023-04-30T01:49:03.805Z,0.00
2023-04-30T01:50:03.798Z,0.00
2023-04-30T01:51:03.772Z,0.00
2023-04-30T01:52:03.886Z,0.00
2023-04-30T01:53:03.751Z,0.00
2023-04-30T01:54:03.772Z,0.00
2023-04-30T01:55:03.720Z,0.00
2023-04-30T01:56:03.747Z,0.00
2023-04-30T01:57:03.735Z,0.00
2023-04-30T01:58:03.714Z,0.00
2023-04-30T01:59:03.749Z,0.00
2023-04-30T02:00:03.715Z,0.00
2023-04-30T02:01:03.690Z,0.00
2023-04-30T02:02:03.688Z,0.00
2023-04-30T02:03:03.690Z,0.00
2023-04-30T02:04:03.727Z,0.00
2023-04-30T02:05:03.635Z,0.00
2023-04-30T02:06:03.641Z,0.00
2023-04-30T02:07:03.641Z,0.00
2023-04-30T02:08:03.617Z,0.00
2023-04-30T02:09:03.654Z,0.00
2023-04-30T02:10:03.600Z,0.00
2023-04-30T02:11:03.556Z,0.00
2023-04-30T02:12:03.634Z,0.00
2023-04-30T02:13:03.539Z,0.00
2023-04-30T02:14:03.568Z,0.00
2023-04-30T02:15:03.536Z,0.00
2023-04-30T02:16:03.566Z,0.00
2023-04-30T02:17:03.526Z,0.00
2023-04-30T02:18:03.534Z,0.00
2023-04-30T02:19:03.541Z,0.00
2023-04-30T02:20:03.550Z,0.00
2023-04-30T02:21:03.475Z,0.00
2023-04-30T02:22:03.498Z,0.00
2023-04-30T02:23:03.460Z,0.00
2023-04-30T02:24:03.485Z,0.00
2023-04-30T02:25:03.459Z,0.00
2023-04-30T02:26:03.424Z,0.00
2023-04-30T02:27:03.436Z,0.00
2023-04-30T02:28:03.402Z,0.00
2023-04-30T02:29:03.410Z,0.00
2023-04-30T02:30:03.400Z,0.00
2023-04-30T02:31:03.359Z,0.00
2023-04-30T02:32:03.402Z,0.00
2023-04-30T02:33:03.405Z,0.00
2023-04-30T02:34:03.387Z,0.00
2023-04-30T02:35:03.320Z,0.00
2023-04-30T02:36:03.342Z,0.00
2023-04-30T02:37:03.342Z,0.00
2023-04-30T02:38:03.287Z,0.00
2023-04-30T02:39:03.337Z,0.00
2023-04-30T02:40:03.320Z,0.00
2023-04-30T02:41:03.283Z,0.00
2023-04-30T02:42:03.286Z,0.00
2023-04-30T02:43:03.296Z,0.00
2023-04-30T02:44:03.252Z,0.00
2023-04-30T02:45:03.216Z,0.00
2023-04-30T02:46:03.250Z,0.00
2023-04-30T02:47:03.203Z,0.00
2023-04-30T02:48:03.341Z,0.00
2023-04-30T02:49:03.192Z,0.00
2023-04-30T02:50:03.190Z,0.00
2023-04-30T02:51:03.166Z,0.00
2023-04-30T02:52:03.199Z,0.00
2023-04-30T02:53:03.194Z,0.00
2023-04-30T02:54:03.142Z,0.00
2023-04-30T02:55:03.123Z,0.00
2023-04-30T02:56:03.119Z,0.00
2023-04-30T02:57:03.155Z,0.00
2023-04-30T02:58:03.138Z,0.00
2023-04-30T02:59:03.089Z,0.00
2023-04-30T03:00:03.104Z,0.00
2023-04-30T03:01:03.141Z,0.00
2023-04-30T03:02:03.104Z,0.00
2023-04-30T03:03:03.141Z,0.00
2023-04-30T03:04:03.047Z,0.00
2023-04-30T03:05:03.017Z,0.00
2023-04-30T03:06:03.087Z,0.00
2023-04-30T03:07:03.057Z,0.00
2023-04-30T03:08:02.990Z,0.00
2023-04-30T03:09:03.017Z,0.00
2023-04-30T03:10:02.996Z,0.00
2023-04-30T03:11:02.987Z,0.00
2023-04-30T03:12:03.007Z,0.00
2023-04-30T03:13:02.941Z,0.00
2023-04-30T03:14:02.956Z,0.00
2023-04-30T03:15:02.963Z,0.00
2023-04-30T03:16:02.941Z,1.00
2023-04-30T03:17:02.907Z,0.00
2023-04-30T03:18:02.972Z,1.00
2023-04-30T03:19:02.851Z,1.00
2023-04-30T03:20:02.813Z,1.00
2023-04-30T03:21:02.829Z,1.00
2023-04-30T03:22:02.848Z,0.00
2023-04-30T03:23:02.812Z,2.00
2023-04-30T03:24:02.801Z,2.00
2023-04-30T03:25:02.770Z,1.00
2023-04-30T03:26:02.830Z,0.00
2023-04-30T03:27:02.765Z,2.00
2023-04-30T03:28:02.833Z,1.00
2023-04-30T03:29:02.757Z,3.00
2023-04-30T03:30:02.749Z,4.00
2023-04-30T03:31:02.739Z,1.00
2023-04-30T03:32:02.821Z,2.00
2023-04-30T03:33:02.831Z,4.00
2023-04-30T03:34:02.724Z,6.00
2023-04-30T03:35:02.688Z,4.00
2023-04-30T03:36:02.666Z,3.00
2023-04-30T03:37:02.658Z,7.00
2023-04-30T03:38:02.673Z,8.00
2023-04-30T03:39:02.689Z,10.00
2023-04-30T03:40:02.625Z,15.00
2023-04-30T03:41:02.651Z,14.00
2023-04-30T03:42:02.608Z,16.00
2023-04-30T03:43:02.631Z,21.00
2023-04-30T03:44:02.605Z,23.00
2023-04-30T03:45:02.560Z,29.00
2023-04-30T03:46:02.613Z,34.00
2023-04-30T03:47:02.582Z,40.00
2023-04-30T03:48:02.563Z,42.00
2023-04-30T03:49:02.570Z,49.00
2023-04-30T03:50:02.562Z,53.00
2023-04-30T03:51:02.509Z,62.00
2023-04-30T03:52:02.506Z,74.00
2023-04-30T03:53:02.535Z,81.00
2023-04-30T03:54:02.519Z,84.00
2023-04-30T03:55:02.473Z,98.00
2023-04-30T03:56:02.481Z,110.00
2023-04-30T03:57:02.460Z,122.00
2023-04-30T03:58:02.501Z,136.00
2023-04-30T03:59:02.456Z,144.00
2023-04-30T04:00:02.452Z,158.00
2023-04-30T04:01:02.422Z,172.00
2023-04-30T04:02:02.538Z,185.00
2023-04-30T04:03:02.449Z,203.00
2023-04-30T04:04:02.506Z,214.00
2023-04-30T04:05:02.414Z,228.00
2023-04-30T04:06:02.408Z,245.00
2023-04-30T04:07:02.366Z,264.00
2023-04-30T04:08:02.383Z,282.00
2023-04-30T04:09:02.363Z,302.00
2023-04-30T04:10:02.340Z,319.00
2023-04-30T04:11:02.356Z,340.00
2023-04-30T04:12:02.327Z,354.00
2023-04-30T04:13:02.352Z,369.00
2023-04-30T04:14:02.334Z,384.00
2023-04-30T04:15:02.368Z,403.00
2023-04-30T04:16:02.352Z,424.00
2023-04-30T04:17:02.281Z,453.00
2023-04-30T04:18:02.377Z,476.00
2023-04-30T04:19:02.254Z,498.00
2023-04-30T04:20:02.255Z,529.00
2023-04-30T04:21:02.256Z,553.00
2023-04-30T04:22:02.218Z,584.00
2023-04-30T04:23:02.229Z,599.00
2023-04-30T04:24:02.203Z,626.00
2023-04-30T04:25:02.180Z,662.00
2023-04-30T04:26:02.187Z,681.00
2023-04-30T04:27:02.161Z,708.00
2023-04-30T04:28:02.203Z,738.00
2023-04-30T04:29:02.191Z,771.00
2023-04-30T04:30:02.131Z,798.00
2023-04-30T04:31:02.133Z,819.00
2023-04-30T04:32:02.217Z,815.00
2023-04-30T04:33:02.196Z,798.00
2023-04-30T04:34:02.133Z,677.00
2023-04-30T04:35:02.089Z,481.00
2023-04-30T04:36:02.067Z,590.00
2023-04-30T04:37:02.066Z,904.00
2023-04-30T04:38:02.065Z,1338.00
2023-04-30T04:39:02.365Z,1519.00
2023-04-30T04:40:02.112Z,1614.00
2023-04-30T04:41:02.045Z,2037.00
2023-04-30T04:42:02.033Z,1945.00
2023-04-30T04:43:02.012Z,1540.00
2023-04-30T04:44:02.081Z,974.00
2023-04-30T04:45:01.978Z,1362.00
2023-04-30T04:46:02.041Z,2332.00
2023-04-30T04:47:01.965Z,2118.00
2023-04-30T04:48:02.133Z,1526.00
2023-04-30T04:49:01.998Z,2367.00
2023-04-30T04:50:01.961Z,2452.00
2023-04-30T04:51:01.938Z,1951.00
2023-04-30T04:52:01.934Z,2201.00
2023-04-30T04:53:01.904Z,1934.00
2023-04-30T04:54:01.950Z,1809.00
2023-04-30T04:55:01.883Z,1809.00
2023-04-30T04:56:01.883Z,1828.00
2023-04-30T04:57:01.868Z,1828.00
2023-04-30T04:58:01.851Z,1852.00
2023-04-30T04:59:01.884Z,1977.00
2023-04-30T05:00:01.821Z,2024.00
2023-04-30T05:01:01.833Z,1983.00
2023-04-30T05:02:01.953Z,1943.00
2023-04-30T05:03:01.888Z,2205.00
2023-04-30T05:04:01.935Z,2371.00
2023-04-30T05:05:01.780Z,2275.00
2023-04-30T05:06:01.843Z,2000.00
2023-04-30T05:07:01.866Z,2157.00
2023-04-30T05:08:01.763Z,3579.00
2023-04-30T05:09:01.785Z,3841.00
2023-04-30T05:10:01.732Z,3239.00
2023-04-30T05:11:01.727Z,2956.00
2023-04-30T05:12:01.732Z,2896.00
2023-04-30T05:13:01.711Z,2862.00
2023-04-30T05:14:01.732Z,3808.00
2023-04-30T05:15:01.687Z,4306.00
2023-04-30T05:16:01.693Z,3698.00
2023-04-30T05:17:01.724Z,3587.00
2023-04-30T05:18:01.717Z,4886.00
2023-04-30T05:19:01.697Z,4887.00
2023-04-30T05:20:01.614Z,4053.00
2023-04-30T05:21:01.620Z,3233.00
2023-04-30T05:22:01.596Z,3222.00
2023-04-30T05:23:01.609Z,3602.00
2023-04-30T05:24:01.618Z,4523.00
2023-04-30T05:25:01.573Z,4182.00
2023-04-30T05:26:01.561Z,3653.00
2023-04-30T05:27:01.561Z,3643.00
2023-04-30T05:28:01.562Z,3832.00
2023-04-30T05:29:01.568Z,4134.00
2023-04-30T05:30:01.536Z,3662.00
2023-04-30T05:31:01.528Z,4030.00
2023-04-30T05:32:01.582Z,3844.00
2023-04-30T05:33:01.547Z,5979.00
2023-04-30T05:34:01.514Z,6691.00
2023-04-30T05:35:01.475Z,3858.00
2023-04-30T05:36:01.521Z,5407.00
2023-04-30T05:37:01.483Z,7381.00
2023-04-30T05:38:01.431Z,9014.00
2023-04-30T05:39:01.517Z,10200.00
2023-04-30T05:40:01.408Z,8828.00
2023-04-30T05:41:01.446Z,8109.00
2023-04-30T05:42:01.401Z,8714.00
2023-04-30T05:43:01.409Z,7909.00
2023-04-30T05:44:01.633Z,8257.00
2023-04-30T05:45:01.377Z,10536.00
2023-04-30T05:46:01.527Z,5329.00
2023-04-30T05:47:01.364Z,6792.00
2023-04-30T05:48:01.415Z,8254.00
2023-04-30T05:49:01.362Z,6098.00
2023-04-30T05:50:01.322Z,12430.00
2023-04-30T05:51:01.338Z,12013.00
2023-04-30T05:52:01.298Z,12477.00
2023-04-30T05:53:01.286Z,14908.00
2023-04-30T05:54:01.309Z,15733.00
2023-04-30T05:55:01.304Z,15666.00
2023-04-30T05:56:01.278Z,17243.00
2023-04-30T05:57:01.256Z,17091.00
2023-04-30T05:58:01.235Z,14702.00
2023-04-30T05:59:01.277Z,15202.00
2023-04-30T06:00:01.211Z,15244.00
2023-04-30T06:01:01.219Z,16459.00
2023-04-30T06:02:01.246Z,16825.00
2023-04-30T06:03:01.190Z,15080.00
2023-04-30T06:04:01.211Z,14119.00
2023-04-30T06:05:01.190Z,14313.00
2023-04-30T06:06:01.197Z,13773.00
2023-04-30T06:07:01.141Z,13599.00
2023-04-30T06:08:01.156Z,14986.00
2023-04-30T06:09:01.164Z,13017.00
2023-04-30T06:10:01.108Z,12879.00
2023-04-30T06:11:01.117Z,13607.00
2023-04-30T06:12:01.089Z,14351.00
2023-04-30T06:13:01.085Z,13803.00
2023-04-30T06:14:01.155Z,13219.00
2023-04-30T06:15:01.061Z,15335.00
2023-04-30T06:16:01.052Z,14426.00
2023-04-30T06:17:01.156Z,13012.00
2023-04-30T06:18:01.075Z,16391.00
2023-04-30T06:19:01.074Z,15205.00
2023-04-30T06:20:01.044Z,14286.00
2023-04-30T06:21:01.018Z,14440.00
2023-04-30T06:22:01.010Z,15169.00
2023-04-30T06:23:01.117Z,15416.00
2023-04-30T06:24:01.027Z,14204.00
2023-04-30T06:25:01.007Z,14858.00
2023-04-30T06:26:00.957Z,16359.00
2023-04-30T06:27:00.983Z,14922.00
2023-04-30T06:28:00.943Z,13989.00
2023-04-30T06:29:01.001Z,13661.00
2023-04-30T06:30:01.096Z,16237.00
2023-04-30T06:31:00.935Z,18227.00
2023-04-30T06:32:00.921Z,16907.00
2023-04-30T06:33:00.923Z,16233.00
2023-04-30T06:34:00.919Z,20303.00
2023-04-30T06:35:00.863Z,19630.00
2023-04-30T06:36:00.895Z,17968.00
2023-04-30T06:37:01.060Z,18193.00
2023-04-30T06:38:00.866Z,18374.00
2023-04-30T06:39:00.854Z,17044.00
2023-04-30T06:40:00.821Z,15934.00
2023-04-30T06:41:00.830Z,15975.00
2023-04-30T06:42:00.789Z,15621.00
2023-04-30T06:43:00.825Z,15559.00
2023-04-30T06:44:00.795Z,14466.00
2023-04-30T06:45:00.747Z,18841.00
2023-04-30T06:46:00.790Z,21552.00
2023-04-30T06:47:00.751Z,19046.00
2023-04-30T06:48:00.785Z,18928.00
2023-04-30T06:49:00.769Z,18393.00
2023-04-30T06:50:00.716Z,17400.00
2023-04-30T06:51:00.700Z,16997.00
2023-04-30T06:52:00.806Z,15960.00
2023-04-30T06:53:00.680Z,17109.00
2023-04-30T06:54:00.757Z,20354.00
2023-04-30T06:55:01.249Z,27886.00
2023-04-30T06:56:00.652Z,33075.00
2023-04-30T06:57:00.653Z,34840.00
2023-04-30T06:58:00.759Z,34136.00
2023-04-30T06:59:00.706Z,22363.00
2023-04-30T07:00:00.606Z,24406.00
2023-04-30T07:01:00.816Z,76175.00
2023-04-30T07:02:00.763Z,70032.00
2023-04-30T07:03:00.622Z,29282.00
2023-04-30T07:04:00.618Z,20628.00
2023-04-30T07:05:00.588Z,19361.00
2023-04-30T07:06:00.565Z,27564.00
2023-04-30T07:07:00.558Z,32036.00
2023-04-30T07:08:00.509Z,24952.00
2023-04-30T07:09:00.596Z,30512.00
2023-04-30T07:10:00.517Z,24608.00
2023-04-30T07:11:00.495Z,25419.00
2023-04-30T07:12:00.490Z,22312.00
2023-04-30T07:13:00.519Z,15767.00
2023-04-30T07:14:00.505Z,14815.00
2023-04-30T07:15:00.476Z,15713.00
2023-04-30T07:16:00.484Z,12550.00
2023-04-30T07:17:03.392Z,12202.00
2023-04-30T07:18:00.459Z,10393.00
2023-04-30T07:19:02.328Z,16379.00
2023-04-30T07:20:00.517Z,11941.00
2023-04-30T07:21:00.419Z,12371.00
2023-04-30T07:22:00.441Z,12738.00
2023-04-30T07:23:00.390Z,13738.00
2023-04-30T07:24:00.587Z,16613.00
2023-04-30T07:25:00.345Z,13484.00
2023-04-30T07:26:00.344Z,9701.00
2023-04-30T07:27:00.322Z,8910.00
2023-04-30T07:28:00.340Z,10707.00
2023-04-30T07:29:00.329Z,14895.00
2023-04-30T07:30:00.303Z,19481.00
2023-04-30T07:31:00.290Z,22357.00
2023-04-30T07:32:00.338Z,12500.00
2023-04-30T07:33:00.280Z,3618.00
2023-04-30T07:34:00.270Z,11921.00
2023-04-30T07:35:00.235Z,24265.00
2023-04-30T07:36:01.246Z,33309.00
2023-04-30T07:37:00.228Z,29197.00
2023-04-30T07:38:00.361Z,24704.00
2023-04-30T07:39:00.233Z,26923.00
2023-04-30T07:40:00.214Z,35897.00
2023-04-30T07:41:00.192Z,31569.00
2023-04-30T07:42:00.156Z,30318.00
2023-04-30T07:43:00.193Z,28539.00
2023-04-30T07:44:00.193Z,76064.00
2023-04-30T07:45:00.164Z,75849.00
2023-04-30T07:46:00.207Z,76098.00
2023-04-30T07:47:01.160Z,75759.00
2023-04-30T07:48:00.187Z,76202.00
2023-04-30T07:49:00.308Z,74973.00
2023-04-30T07:50:00.194Z,75332.00
2023-04-30T07:51:00.070Z,77347.00
2023-04-30T07:52:00.066Z,76119.00
2023-04-30T07:53:00.329Z,76870.00
2023-04-30T07:54:00.133Z,75733.00
2023-04-30T07:55:00.480Z,74052.00
2023-04-30T07:57:13.344Z,76728.00
2023-04-30T07:58:14.221Z,76433.00
2023-04-30T07:59:14.892Z,76459.00
2023-04-30T08:00:13.998Z,77354.00
2023-04-30T08:01:20.704Z,79430.00
2023-04-30T08:02:14.846Z,79978.00
2023-04-30T08:03:14.208Z,77448.00
2023-04-30T08:04:14.069Z,76319.00
2023-04-30T08:05:13.963Z,75200.00
2023-04-30T08:06:14.101Z,75181.00
2023-04-30T08:07:13.951Z,76850.00
2023-04-30T08:08:13.974Z,77137.00
2023-04-30T08:09:13.910Z,75591.00
2023-04-30T08:10:13.912Z,77087.00
2023-04-30T08:11:13.909Z,78540.00
2023-04-30T08:12:13.892Z,79163.00
2023-04-30T08:13:13.878Z,78903.00
2023-04-30T08:14:13.879Z,77481.00
2023-04-30T08:15:13.846Z,77759.00
2023-04-30T08:16:13.863Z,77929.00
2023-04-30T08:17:13.877Z,79257.00
2023-04-30T08:18:13.893Z,79575.00
2023-04-30T08:19:13.820Z,78739.00
2023-04-30T08:20:13.848Z,79011.00
2023-04-30T08:21:13.791Z,80721.00
2023-04-30T08:22:13.812Z,82122.00
2023-04-30T08:23:13.798Z,80795.00
2023-04-30T08:24:13.811Z,77638.00
2023-04-30T08:25:13.785Z,79407.00
2023-04-30T08:26:13.800Z,82407.00
2023-04-30T08:27:13.718Z,82949.00
2023-04-30T08:28:13.737Z,80269.00
2023-04-30T08:29:13.748Z,79997.00
2023-04-30T08:30:13.734Z,79575.00
2023-04-30T08:31:13.718Z,81062.00
2023-04-30T08:32:13.746Z,79921.00
2023-04-30T08:33:13.748Z,77373.00
2023-04-30T08:34:13.656Z,77020.00
2023-04-30T08:35:13.639Z,80437.00
2023-04-30T08:36:13.720Z,82523.00
2023-04-30T08:37:13.625Z,81746.00
2023-04-30T08:38:13.639Z,82142.00
2023-04-30T08:39:13.610Z,83207.00
2023-04-30T08:40:13.648Z,81976.00
2023-04-30T08:41:13.582Z,78668.00
2023-04-30T08:42:13.570Z,78003.00
2023-04-30T08:43:13.580Z,80419.00
2023-04-30T08:44:13.602Z,80511.00
2023-04-30T08:45:13.530Z,78497.00
2023-04-30T08:46:13.606Z,77889.00
2023-04-30T08:47:13.572Z,79190.00
2023-04-30T08:48:13.528Z,79781.00
2023-04-30T08:49:13.523Z,80693.00
2023-04-30T08:50:13.493Z,81415.00
2023-04-30T08:51:13.485Z,81822.00
2023-04-30T08:52:13.503Z,83191.00
2023-04-30T08:53:13.522Z,82523.00
2023-04-30T08:54:13.460Z,80594.00
2023-04-30T08:55:13.485Z,77586.00
2023-04-30T08:56:13.437Z,72944.00
2023-04-30T08:57:13.425Z,72886.00
2023-04-30T08:58:13.446Z,78865.00
2023-04-30T08:59:13.424Z,80833.00
2023-04-30T09:00:13.424Z,80401.00
2023-04-30T09:01:13.428Z,81246.00
2023-04-30T09:02:13.402Z,80660.00
2023-04-30T09:03:13.436Z,81891.00
2023-04-30T09:04:13.722Z,76465.00
2023-04-30T09:05:13.425Z,76422.00
2023-04-30T09:06:13.385Z,80117.00
2023-04-30T09:07:13.334Z,81192.00
2023-04-30T09:08:13.373Z,79655.00
2023-04-30T09:09:13.310Z,81739.00
2023-04-30T09:10:13.320Z,83163.00
2023-04-30T09:11:13.290Z,78694.00
2023-04-30T09:12:13.306Z,77247.00
2023-04-30T09:13:13.297Z,80431.00
2023-04-30T09:14:13.312Z,78787.00
2023-04-30T09:15:13.264Z,79970.00
2023-04-30T09:16:13.275Z,82736.00
2023-04-30T09:17:13.281Z,82890.00
2023-04-30T09:18:13.292Z,82404.00
2023-04-30T09:19:13.345Z,82371.00
2023-04-30T09:20:13.353Z,82171.00
2023-04-30T09:21:13.242Z,82786.00
2023-04-30T09:22:13.368Z,78243.00
2023-04-30T09:23:13.184Z,77201.00
2023-04-30T09:24:13.208Z,82038.00
2023-04-30T09:25:13.156Z,80718.00
2023-04-30T09:26:13.179Z,81954.00
2023-04-30T09:27:13.135Z,82931.00
2023-04-30T09:28:13.269Z,82022.00
2023-04-30T09:29:13.141Z,81428.00
2023-04-30T09:30:13.111Z,76234.00
2023-04-30T09:31:13.136Z,76676.00
2023-04-30T09:32:13.101Z,81799.00
2023-04-30T09:33:13.175Z,80942.00
2023-04-30T09:34:13.168Z,78725.00
2023-04-30T09:35:13.145Z,77325.00
2023-04-30T09:36:13.063Z,75659.00
2023-04-30T09:37:13.052Z,76002.00
2023-04-30T09:38:13.187Z,75294.00
2023-04-30T09:39:15.307Z,77559.00
2023-04-30T09:40:13.022Z,81908.00
2023-04-30T09:41:13.060Z,81000.00
2023-04-30T09:42:13.024Z,80595.00
2023-04-30T09:43:13.019Z,80805.00
2023-04-30T09:44:13.009Z,83044.00
2023-04-30T09:45:12.988Z,80344.00
2023-04-30T09:46:13.049Z,81176.00
2023-04-30T09:47:13.067Z,82675.00
2023-04-30T09:48:17.490Z,81322.00
2023-04-30T09:49:13.427Z,77018.00
2023-04-30T09:50:13.018Z,76833.00
2023-04-30T09:51:13.035Z,77675.00
2023-04-30T09:52:12.963Z,77435.00
2023-04-30T09:53:13.083Z,75494.00
2023-04-30T09:54:13.000Z,75707.00
2023-04-30T09:55:13.156Z,75870.00
2023-04-30T09:56:13.032Z,75362.00
2023-04-30T09:57:13.031Z,75455.00
2023-04-30T09:58:14.617Z,76312.00
2023-04-30T09:59:14.137Z,80353.00
2023-04-30T10:00:19.269Z,75529.00
2023-04-30T10:01:13.051Z,75614.00
2023-04-30T10:02:12.987Z,75556.00
2023-04-30T10:03:12.902Z,76683.00
2023-04-30T10:04:12.927Z,76750.00
2023-04-30T10:05:12.840Z,75273.00
2023-04-30T10:06:12.867Z,75464.00
2023-04-30T10:07:15.397Z,75632.00
2023-04-30T10:08:12.868Z,75497.00
2023-04-30T10:09:12.805Z,80980.00
2023-04-30T10:10:12.778Z,82337.00
2023-04-30T10:11:12.768Z,79405.00
2023-04-30T10:12:12.764Z,78036.00
2023-04-30T10:13:12.775Z,78208.00
2023-04-30T10:14:12.737Z,79398.00
2023-04-30T10:15:12.712Z,78214.00
2023-04-30T10:16:12.778Z,76691.00
2023-04-30T10:17:12.749Z,77323.00
2023-04-30T10:18:12.857Z,79678.00
2023-04-30T10:19:12.735Z,79876.00
2023-04-30T10:20:12.696Z,78278.00
2023-04-30T10:21:12.831Z,75750.00
2023-04-30T10:22:12.691Z,75533.00
2023-04-30T10:23:12.677Z,75211.00
2023-04-30T10:24:12.656Z,74873.00
2023-04-30T10:25:12.673Z,77851.00
2023-04-30T10:26:12.666Z,77838.00
2023-04-30T10:27:12.620Z,76934.00
2023-04-30T10:28:12.623Z,79208.00
2023-04-30T10:29:12.612Z,82842.00
2023-04-30T10:30:12.593Z,81139.00
2023-04-30T10:31:12.571Z,80734.00
2023-04-30T10:32:12.653Z,82971.00
2023-04-30T10:33:15.696Z,78133.00
2023-04-30T10:34:12.572Z,75868.00
2023-04-30T10:35:12.527Z,75605.00
2023-04-30T10:36:12.563Z,75538.00
2023-04-30T10:37:12.568Z,76452.00
2023-04-30T10:38:12.536Z,80944.00
2023-04-30T10:39:12.802Z,81835.00
2023-04-30T10:40:12.522Z,81235.00
2023-04-30T10:41:12.507Z,80018.00
2023-04-30T10:42:12.509Z,80915.00
2023-04-30T10:43:12.470Z,81652.00
2023-04-30T10:44:12.501Z,79546.00
2023-04-30T10:45:12.499Z,79057.00
2023-04-30T10:46:12.497Z,77610.00
2023-04-30T10:47:12.434Z,75522.00
2023-04-30T10:48:12.440Z,77157.00
2023-04-30T10:49:12.525Z,81437.00
2023-04-30T10:50:12.432Z,77731.00
2023-04-30T10:51:12.431Z,78447.00
2023-04-30T10:52:12.391Z,81622.00
2023-04-30T10:53:12.377Z,82099.00
2023-04-30T10:54:12.392Z,78858.00
2023-04-30T10:55:12.350Z,77590.00
2023-04-30T10:56:12.399Z,75238.00
2023-04-30T10:57:12.328Z,76259.00
2023-04-30T10:58:12.352Z,79504.00
2023-04-30T10:59:12.924Z,77690.00
2023-04-30T11:00:12.409Z,76201.00
2023-04-30T11:01:12.394Z,76181.00
2023-04-30T11:02:12.316Z,76835.00
2023-04-30T11:03:12.439Z,80736.00
2023-04-30T11:04:12.312Z,76915.00
2023-04-30T11:05:12.403Z,76427.00
2023-04-30T11:06:12.266Z,81653.00
2023-04-30T11:07:12.253Z,75709.00
2023-04-30T11:08:12.225Z,75441.00
2023-04-30T11:09:12.309Z,75698.00
2023-04-30T11:10:12.274Z,75567.00
2023-04-30T11:11:12.241Z,75743.00
2023-04-30T11:12:12.315Z,75957.00
2023-04-30T11:13:12.189Z,75985.00
2023-04-30T11:14:12.492Z,75860.00
2023-04-30T11:15:12.831Z,75607.00
2023-04-30T11:16:12.370Z,75760.00
2023-04-30T11:17:12.160Z,75910.00
2023-04-30T11:18:13.720Z,75938.00
2023-04-30T11:19:12.211Z,75384.00
2023-04-30T11:20:12.402Z,75182.00
2023-04-30T11:21:12.148Z,75350.00
2023-04-30T11:22:12.140Z,76468.00
2023-04-30T11:23:14.247Z,76993.00
2023-04-30T11:24:12.137Z,75477.00
2023-04-30T11:25:12.126Z,75362.00
2023-04-30T11:26:12.816Z,77767.00
2023-04-30T11:27:12.931Z,81033.00
2023-04-30T11:28:12.058Z,79122.00
2023-04-30T11:29:12.100Z,76664.00
2023-04-30T11:30:12.065Z,75952.00
2023-04-30T11:31:14.119Z,75804.00
2023-04-30T11:32:12.073Z,79567.00
2023-04-30T11:33:12.085Z,77625.00
2023-04-30T11:34:12.138Z,76112.00
2023-04-30T11:35:12.044Z,76007.00
2023-04-30T11:36:12.037Z,75760.00
2023-04-30T11:37:11.978Z,75471.00
2023-04-30T11:38:12.053Z,75700.00
2023-04-30T11:39:12.025Z,76831.00
2023-04-30T11:40:12.068Z,76159.00
2023-04-30T11:41:11.934Z,75806.00
2023-04-30T11:42:11.937Z,75652.00
2023-04-30T11:43:11.971Z,75532.00
2023-04-30T11:44:11.964Z,78197.00
2023-04-30T11:45:11.927Z,77869.00
2023-04-30T11:46:12.013Z,75723.00
2023-04-30T11:47:11.885Z,83018.00
2023-04-30T11:48:12.080Z,71046.00
2023-04-30T11:49:11.924Z,26420.00
2023-04-30T11:50:11.943Z,7436.00
2023-04-30T11:51:11.876Z,5192.00
2023-04-30T11:52:11.846Z,5145.00
2023-04-30T11:53:11.879Z,4936.00
2023-04-30T11:54:11.839Z,4774.00
2023-04-30T11:55:11.823Z,4545.00
2023-04-30T11:56:11.821Z,4540.00
2023-04-30T11:57:11.856Z,4812.00
2023-04-30T11:58:11.968Z,5250.00
2023-04-30T11:59:11.797Z,5278.00
2023-04-30T12:00:11.820Z,5133.00
2023-04-30T12:01:11.742Z,4521.00
2023-04-30T12:02:13.602Z,4556.00
2023-04-30T12:03:11.796Z,4304.00
2023-04-30T12:04:11.849Z,4141.00
2023-04-30T12:05:11.706Z,4695.00
2023-04-30T12:06:11.751Z,4484.00
2023-04-30T12:07:11.694Z,3938.00
2023-04-30T12:08:11.724Z,2885.00
2023-04-30T12:09:11.677Z,3981.00
2023-04-30T12:10:11.659Z,3958.00
2023-04-30T12:11:11.674Z,3944.00
2023-04-30T12:12:11.664Z,4016.00
2023-04-30T12:13:11.723Z,3740.00
2023-04-30T12:14:11.654Z,4253.00
2023-04-30T12:15:11.622Z,4685.00
2023-04-30T12:16:11.617Z,4783.00
2023-04-30T12:17:11.589Z,4095.00
2023-04-30T12:18:11.654Z,4316.00